createdAt,value
2023-04-10T00:00:02.254Z,99812.38
2023-04-10T00:02:32.766Z,99823.75
2023-04-10T00:05:00.906Z,99817.72
2023-04-10T00:07:27.758Z,99822.34
2023-04-10T00:09:54.445Z,99824.66
2023-04-10T00:12:21.496Z,99826.53
2023-04-10T00:14:48.163Z,99826.78
2023-04-10T00:17:14.849Z,99819.13
2023-04-10T00:19:41.602Z,99824.19
2023-04-10T00:22:08.315Z,99826.03
2023-04-10T00:24:35.018Z,99820.91
2023-04-10T00:27:01.732Z,99825.63
2023-04-10T00:29:28.569Z,99833.47
2023-04-10T00:31:55.436Z,99829.09
2023-04-10T00:34:22.187Z,99821.53
2023-04-10T00:36:48.828Z,99825.81
2023-04-10T00:39:15.574Z,99828.06
2023-04-10T00:41:42.537Z,99835.94
2023-04-10T00:44:09.380Z,99837.78
2023-04-10T00:46:39.218Z,99833.00
2023-04-10T00:49:06.508Z,99818.75
2023-04-10T00:51:33.681Z,99819.47
2023-04-10T00:54:02.408Z,99825.00
2023-04-10T00:56:33.999Z,99820.97
2023-04-10T00:59:00.764Z,99814.66
2023-04-10T01:01:27.471Z,99815.38
2023-04-10T01:03:55.112Z,99799.16
2023-04-10T01:06:38.756Z,99807.81
2023-04-10T01:09:14.649Z,99797.91
2023-04-10T01:11:56.100Z,99789.19
2023-04-10T01:14:34.625Z,99790.81
2023-04-10T01:17:09.632Z,99784.47
2023-04-10T01:19:52.066Z,99787.16
2023-04-10T01:22:21.162Z,99780.47
2023-04-10T01:25:12.617Z,99774.06
2023-04-10T01:28:05.041Z,99766.94
2023-04-10T01:30:35.563Z,99768.47
2023-04-10T01:33:04.292Z,99765.25
2023-04-10T01:35:33.411Z,99763.28
2023-04-10T01:38:04.195Z,99760.53
2023-04-10T01:40:32.870Z,99763.75
2023-04-10T01:43:01.907Z,99763.38
2023-04-10T01:45:29.232Z,99763.47
2023-04-10T01:47:56.948Z,99756.47
2023-04-10T01:50:24.589Z,99762.81
2023-04-10T01:52:56.295Z,99751.03
2023-04-10T01:55:24.230Z,99753.41
2023-04-10T01:57:51.920Z,99757.78
2023-04-10T02:00:19.021Z,99757.78
2023-04-10T02:02:46.007Z,99751.56
2023-04-10T02:05:12.879Z,99748.34
2023-04-10T02:07:42.572Z,99743.97
2023-04-10T02:10:12.162Z,99749.13
2023-04-10T02:13:05.389Z,99754.66
2023-04-10T02:15:34.464Z,99745.59
2023-04-10T02:18:04.969Z,99742.84
2023-04-10T02:20:32.489Z,99743.56
2023-04-10T02:23:03.752Z,99736.41
2023-04-10T02:25:35.153Z,99737.94
2023-04-10T02:28:08.841Z,99731.59
2023-04-10T02:30:35.942Z,99729.66
2023-04-10T02:33:02.685Z,99713.44
2023-04-10T02:35:29.387Z,99726.81
2023-04-10T02:37:56.324Z,99718.88
2023-04-10T02:40:23.425Z,99729.56
2023-04-10T02:42:50.067Z,99720.84
2023-04-10T02:45:16.841Z,99723.59
2023-04-10T02:47:43.995Z,99729.94
2023-04-10T02:50:11.471Z,99739.03
2023-04-10T02:52:38.200Z,99735.47
2023-04-10T02:55:05.773Z,99722.88
2023-04-10T02:57:35.009Z,99718.97
2023-04-10T03:00:02.724Z,99725.31
2023-04-10T03:02:32.118Z,99715.03
2023-04-10T03:05:00.597Z,99717.78
2023-04-10T03:07:27.318Z,99711.50
2023-04-10T03:09:53.959Z,99714.25
2023-04-10T03:12:20.641Z,99719.03
2023-04-10T03:14:47.263Z,99714.75
2023-04-10T03:17:13.988Z,99728.56
2023-04-10T03:19:40.616Z,99716.34
2023-04-10T03:22:07.561Z,99706.09
2023-04-10T03:24:34.228Z,99714.75
2023-04-10T03:27:01.579Z,99715.91
2023-04-10T03:29:28.228Z,99717.50
2023-04-10T03:31:54.911Z,99715.13
2023-04-10T03:34:21.598Z,99707.19
2023-04-10T03:36:48.515Z,99713.06
2023-04-10T03:39:15.471Z,99707.47
2023-04-10T03:41:42.081Z,99702.22
2023-04-10T03:44:08.730Z,99717.50
2023-04-10T03:46:35.421Z,99694.19
2023-04-10T03:49:02.156Z,99698.91
2023-04-10T03:51:28.814Z,99686.22
2023-04-10T03:53:56.077Z,99700.47
2023-04-10T03:56:22.910Z,99700.84
2023-04-10T03:58:49.530Z,99698.09
2023-04-10T04:01:16.311Z,99703.63
2023-04-10T04:03:43.350Z,99696.47
2023-04-10T04:06:10.169Z,99698.81
2023-04-10T04:08:38.749Z,99690.00
2023-04-10T04:11:06.198Z,99689.16
2023-04-10T04:13:32.829Z,99684.25
2023-04-10T04:15:59.568Z,99686.50
2023-04-10T04:18:26.195Z,99684.03
2023-04-10T04:20:52.862Z,99670.50
2023-04-10T04:23:19.518Z,99680.69
2023-04-10T04:25:46.318Z,99678.97
2023-04-10T04:28:13.774Z,99679.72
2023-04-10T04:30:40.384Z,99673.31
2023-04-10T04:33:07.167Z,99675.97
2023-04-10T04:35:33.911Z,99668.78
2023-04-10T04:38:00.687Z,99670.28
2023-04-10T04:40:27.309Z,99669.84
2023-04-10T04:42:53.968Z,99659.53
2023-04-10T04:45:21.924Z,99657.41
2023-04-10T04:47:48.645Z,99663.19
2023-04-10T04:50:15.571Z,99662.31
2023-04-10T04:52:42.885Z,99659.91
2023-04-10T04:55:10.115Z,99650.75
2023-04-10T04:57:37.225Z,99655.84
2023-04-10T05:00:04.252Z,99646.31
2023-04-10T05:02:31.158Z,99643.09
2023-04-10T05:04:58.040Z,99645.06
2023-04-10T05:07:24.603Z,99641.06
2023-04-10T05:09:51.765Z,99656.81
2023-04-10T05:12:18.478Z,99646.13
2023-04-10T05:14:45.993Z,99646.94
2023-04-10T05:17:12.681Z,99649.34
2023-04-10T05:19:39.324Z,99646.22
2023-04-10T05:22:06.276Z,99650.94
2023-04-10T05:24:33.028Z,99650.94
2023-04-10T05:26:59.664Z,99655.66
2023-04-10T05:29:26.500Z,99658.41
2023-04-10T05:31:53.510Z,99655.22
2023-04-10T05:34:21.140Z,99659.13
2023-04-10T05:36:47.776Z,99653.63
2023-04-10T05:39:15.793Z,99648.53
2023-04-10T05:41:42.771Z,99647.38
2023-04-10T05:44:09.405Z,99652.19
2023-04-10T05:46:36.214Z,99647.47
2023-04-10T05:49:03.802Z,99649.41
2023-04-10T05:51:30.960Z,99639.19
2023-04-10T05:53:57.609Z,99636.53
2023-04-10T05:56:24.309Z,99636.16
2023-04-10T05:58:50.970Z,99646.84
2023-04-10T06:01:17.561Z,99639.34
2023-04-10T06:03:44.379Z,99644.16
2023-04-10T06:06:11.112Z,99642.63
2023-04-10T06:08:37.723Z,99649.78
2023-04-10T06:11:04.541Z,99638.72
2023-04-10T06:13:32.499Z,99639.59
2023-04-10T06:15:59.185Z,99647.59
2023-04-10T06:18:25.964Z,99638.28
2023-04-10T06:20:52.567Z,99640.31
2023-04-10T06:23:19.459Z,99648.66
2023-04-10T06:25:47.686Z,99640.84
2023-04-10T06:28:14.725Z,99642.84
2023-04-10T06:30:41.469Z,99644.09
2023-04-10T06:33:08.070Z,99649.69
2023-04-10T06:35:36.656Z,99654.50
2023-04-10T06:38:04.424Z,99642.31
2023-04-10T06:40:31.742Z,99655.75
2023-04-10T06:42:58.327Z,99649.41
2023-04-10T06:45:25.033Z,99654.13
2023-04-10T06:47:51.929Z,99653.78
2023-04-10T06:50:18.588Z,99658.13
2023-04-10T06:52:46.310Z,99657.78
2023-04-10T06:55:13.108Z,99665.25
2023-04-10T06:57:40.693Z,99657.78
2023-04-10T07:00:08.137Z,99660.53
2023-04-10T07:02:34.981Z,99660.53
2023-04-10T07:05:01.701Z,99651.03
2023-04-10T07:07:29.314Z,99654.50
2023-04-10T07:09:57.953Z,99656.84
2023-04-10T07:12:24.702Z,99647.66
2023-04-10T07:14:51.418Z,99647.22
2023-04-10T07:17:18.096Z,99656.59
2023-04-10T07:19:44.830Z,99656.13
2023-04-10T07:22:11.714Z,99645.84
2023-04-10T07:24:38.393Z,99649.22
2023-04-10T07:27:05.095Z,99655.44
2023-04-10T07:29:31.899Z,99661.66
2023-04-10T07:31:58.802Z,99661.59
2023-04-10T07:34:26.029Z,99656.44
2023-04-10T07:36:52.795Z,99657.16
2023-04-10T07:39:19.578Z,99649.50
2023-04-10T07:41:46.316Z,99651.75
2023-04-10T07:44:13.289Z,99646.50
2023-04-10T07:46:40.298Z,99648.34
2023-04-10T07:49:08.576Z,99643.53
2023-04-10T07:51:35.663Z,99646.63
2023-04-10T07:54:04.085Z,99638.75
2023-04-10T07:56:33.595Z,99642.63
2023-04-10T07:59:03.271Z,99644.97
2023-04-10T08:01:29.923Z,99640.53
2023-04-10T08:03:56.852Z,99644.44
2023-04-10T08:06:23.693Z,99640.84
2023-04-10T08:08:52.510Z,99660.97
2023-04-10T08:11:27.673Z,99639.28
2023-04-10T08:13:56.758Z,99637.28
2023-04-10T08:16:27.686Z,99643.19
2023-04-10T08:18:55.651Z,99640.06
2023-04-10T08:21:23.925Z,99634.19
2023-04-10T08:23:55.527Z,99631.78
2023-04-10T08:26:22.474Z,99631.44
2023-04-10T08:28:51.065Z,99632.31
2023-04-10T08:31:19.513Z,99629.66
2023-04-10T08:33:46.495Z,99628.94
2023-04-10T08:36:17.540Z,99635.81
2023-04-10T08:38:46.844Z,99633.56
2023-04-10T08:41:18.823Z,99636.53
2023-04-10T08:43:46.430Z,99641.69
2023-04-10T08:46:16.515Z,99636.97
2023-04-10T08:48:53.332Z,99628.31
2023-04-10T08:51:26.261Z,99634.38
2023-04-10T08:53:59.625Z,99629.31
2023-04-10T08:56:26.930Z,99630.19
2023-04-10T08:58:53.623Z,99624.38
2023-04-10T09:01:21.703Z,99621.78
2023-04-10T09:03:48.850Z,99623.47
2023-04-10T09:06:15.773Z,99620.25
2023-04-10T09:08:42.491Z,99614.38
2023-04-10T09:11:09.283Z,99606.81
2023-04-10T09:13:44.083Z,99611.06
2023-04-10T09:16:12.129Z,99603.59
2023-04-10T09:18:48.719Z,99612.97
2023-04-10T09:21:17.376Z,99610.25
2023-04-10T09:23:45.882Z,99617.22
2023-04-10T09:26:29.793Z,99612.53
2023-04-10T09:29:06.905Z,99610.28
2023-04-10T09:31:35.973Z,99611.81
2023-04-10T09:34:10.192Z,99609.94
2023-04-10T09:36:37.750Z,99596.59
2023-04-10T09:39:05.407Z,99605.72
2023-04-10T09:41:32.182Z,99600.97
2023-04-10T09:44:10.688Z,99594.88
2023-04-10T09:46:37.664Z,99596.34
2023-04-10T09:49:07.750Z,99598.84
2023-04-10T09:51:35.903Z,99596.38
2023-04-10T09:54:03.708Z,99597.44
2023-04-10T09:56:31.304Z,99586.09
2023-04-10T09:58:59.989Z,99593.75
2023-04-10T10:01:34.632Z,99604.09
2023-04-10T10:04:05.089Z,99597.75
2023-04-10T10:06:32.920Z,99595.34
2023-04-10T10:09:04.707Z,99595.34
2023-04-10T10:11:35.053Z,99598.13
2023-04-10T10:14:13.259Z,99594.91
2023-04-10T10:16:47.047Z,99593.38
2023-04-10T10:19:22.199Z,99592.81
2023-04-10T10:21:49.177Z,99600.41
2023-04-10T10:24:17.356Z,99590.09
2023-04-10T10:26:45.140Z,99582.72
2023-04-10T10:29:15.025Z,99577.22
2023-04-10T10:31:42.970Z,99579.59
2023-04-10T10:34:09.951Z,99571.47
2023-04-10T10:36:37.328Z,99569.94
2023-04-10T10:39:45.461Z,99569.81
2023-04-10T10:42:41.482Z,99561.03
2023-04-10T10:45:18.749Z,99564.69
2023-04-10T10:47:49.438Z,99566.28
2023-04-10T10:50:16.580Z,99558.59
2023-04-10T10:52:44.941Z,99554.78
2023-04-10T10:55:36.759Z,99554.28
2023-04-10T10:58:11.540Z,99553.44
2023-04-10T11:00:50.503Z,99546.81
2023-04-10T11:03:17.489Z,99546.56
2023-04-10T11:06:04.403Z,99548.28
2023-04-10T11:08:37.611Z,99536.00
2023-04-10T11:11:06.057Z,99537.72
2023-04-10T11:13:37.173Z,99546.84
2023-04-10T11:16:05.758Z,99542.97
2023-04-10T11:18:44.675Z,99542.66
2023-04-10T11:21:12.911Z,99543.41
2023-04-10T11:23:59.568Z,99542.63
2023-04-10T11:26:44.345Z,99537.81
2023-04-10T11:29:19.880Z,99539.38
2023-04-10T11:31:48.497Z,99529.81
2023-04-10T11:34:15.884Z,99525.19
2023-04-10T11:36:43.942Z,99530.38
2023-04-10T11:39:17.811Z,99536.22
2023-04-10T11:41:52.987Z,99564.91
2023-04-10T11:44:29.374Z,99560.03
2023-04-10T11:46:58.064Z,99550.81
2023-04-10T11:49:31.369Z,99536.22
2023-04-10T11:51:58.155Z,99549.91
2023-04-10T11:54:26.930Z,99546.66
2023-04-10T11:56:58.300Z,99552.94
2023-04-10T11:59:25.905Z,99558.75
2023-04-10T12:01:54.409Z,99564.22
2023-04-10T12:04:23.076Z,99561.03
2023-04-10T12:06:56.902Z,99565.72
2023-04-10T12:09:23.768Z,99580.81
2023-04-10T12:11:51.600Z,99578.53
2023-04-10T12:14:23.719Z,99583.38
2023-04-10T12:16:51.524Z,99581.44
2023-04-10T12:19:19.296Z,99587.31
2023-04-10T12:21:46.529Z,99587.63
2023-04-10T12:24:13.412Z,99574.50
2023-04-10T12:26:49.052Z,99588.81
2023-04-10T12:29:15.966Z,99586.22
2023-04-10T12:34:11.393Z,99589.91
2023-04-10T12:36:38.226Z,99588.75
2023-04-10T12:39:06.176Z,99595.50
2023-04-10T12:41:34.416Z,99592.41
2023-04-10T12:44:14.032Z,99583.03
2023-04-10T12:46:42.443Z,99595.00
2023-04-10T12:49:17.182Z,99586.50
2023-04-10T12:51:46.708Z,99590.25
2023-04-10T12:54:31.941Z,99589.25
2023-04-10T12:56:59.265Z,99590.53
2023-04-10T12:59:29.185Z,99591.88
2023-04-10T13:01:56.222Z,99597.19
2023-04-10T13:04:23.765Z,99585.75
2023-04-10T13:06:53.716Z,99589.78
2023-04-10T13:09:21.148Z,99589.00
2023-04-10T13:11:49.102Z,99590.59
2023-04-10T13:14:17.923Z,99595.84
2023-04-10T13:16:44.653Z,99603.09
2023-04-10T13:19:11.391Z,99599.19
2023-04-10T13:21:38.022Z,99590.25
2023-04-10T13:24:04.829Z,99603.56
2023-04-10T13:26:31.641Z,99603.22
2023-04-10T13:28:58.273Z,99598.44
2023-04-10T13:31:24.988Z,99604.84
2023-04-10T13:33:52.691Z,99630.09
2023-04-10T13:36:19.433Z,99626.09
2023-04-10T13:38:46.248Z,99618.25
2023-04-10T13:41:13.012Z,99607.91
2023-04-10T13:43:39.874Z,99611.72
2023-04-10T13:46:06.787Z,99608.94
2023-04-10T13:48:40.718Z,99608.38
2023-04-10T13:51:08.491Z,99602.41
2023-04-10T13:53:35.663Z,99591.72
2023-04-10T13:56:02.538Z,99585.25
2023-04-10T13:58:32.026Z,99593.56
2023-04-10T14:00:59.073Z,99589.25
2023-04-10T14:03:26.020Z,99610.16
2023-04-10T14:05:54.429Z,99623.84
2023-04-10T14:08:21.094Z,99618.84
2023-04-10T14:10:51.562Z,99613.75
2023-04-10T14:13:18.777Z,99615.66
2023-04-10T14:15:45.747Z,99641.63
2023-04-10T14:18:12.624Z,99665.34
2023-04-10T14:20:42.324Z,99669.75
2023-04-10T14:23:09.578Z,99655.09
2023-04-10T14:25:36.257Z,99658.59
2023-04-10T14:28:03.153Z,99650.75
2023-04-10T14:30:31.047Z,99663.72
2023-04-10T14:32:57.953Z,99652.56
2023-04-10T14:35:25.848Z,99660.81
2023-04-10T14:37:52.542Z,99657.38
2023-04-10T14:40:19.207Z,99661.47
2023-04-10T14:42:46.383Z,99660.66
2023-04-10T14:45:13.043Z,99660.97
2023-04-10T14:47:39.756Z,99657.91
2023-04-10T14:50:07.209Z,99669.16
2023-04-10T14:52:33.841Z,99656.47
2023-04-10T14:55:00.786Z,99657.28
2023-04-10T14:57:29.723Z,99665.22
2023-04-10T14:59:56.674Z,99647.00
2023-04-10T15:02:23.981Z,99643.94
2023-04-10T15:04:50.880Z,99650.56
2023-04-10T15:07:17.581Z,99646.06
2023-04-10T15:09:44.659Z,99654.47
2023-04-10T15:12:11.301Z,99645.03
2023-04-10T15:14:38.005Z,99646.00
2023-04-10T15:17:04.782Z,99648.75
2023-04-10T15:19:31.593Z,99641.34
2023-04-10T15:21:58.434Z,99641.75
2023-04-10T15:24:25.252Z,99632.25
2023-04-10T15:26:53.563Z,99633.31
2023-04-10T15:29:20.289Z,99624.66
2023-04-10T15:31:46.916Z,99620.31
2023-04-10T15:34:13.704Z,99632.28
2023-04-10T15:36:41.205Z,99634.13
2023-04-10T15:39:08.694Z,99638.00
2023-04-10T15:41:35.495Z,99644.50
2023-04-10T15:44:03.281Z,99652.28
2023-04-10T15:46:32.847Z,99656.13
2023-04-10T15:49:00.759Z,99664.09
2023-04-10T15:51:27.514Z,99660.78
2023-04-10T15:53:57.369Z,99669.31
2023-04-10T15:56:24.084Z,99678.66
2023-04-10T15:58:50.825Z,99692.28
2023-04-10T16:01:17.434Z,99718.22
2023-04-10T16:03:45.362Z,99731.47
2023-04-10T16:06:12.172Z,99708.38
2023-04-10T16:08:38.805Z,99722.22
2023-04-10T16:11:05.848Z,99724.28
2023-04-10T16:13:32.610Z,99730.00
2023-04-10T16:15:59.441Z,99738.41
2023-04-10T16:18:26.161Z,99720.22
2023-04-10T16:20:53.013Z,99721.56
2023-04-10T16:23:19.722Z,99705.09
2023-04-10T16:25:46.432Z,99708.81
2023-04-10T16:28:13.289Z,99720.25
2023-04-10T16:30:40.135Z,99712.25
2023-04-10T16:33:06.870Z,99720.19
2023-04-10T16:35:33.730Z,99721.22
2023-04-10T16:38:00.352Z,99727.47
2023-04-10T16:40:32.930Z,99743.63
2023-04-10T16:43:02.921Z,99725.13
2023-04-10T16:45:29.991Z,99763.97
2023-04-10T16:47:56.727Z,99766.59
2023-04-10T16:50:23.609Z,99763.19
2023-04-10T16:52:50.558Z,99767.53
2023-04-10T16:55:17.497Z,99781.50
2023-04-10T16:57:44.352Z,99786.16
2023-04-10T17:00:11.688Z,99774.53
2023-04-10T17:02:40.048Z,99774.81
2023-04-10T17:05:07.101Z,99768.63
2023-04-10T17:07:34.746Z,99775.72
2023-04-10T17:10:01.913Z,99771.84
2023-04-10T17:12:29.161Z,99762.31
2023-04-10T17:14:58.870Z,99772.50
2023-04-10T17:17:26.267Z,99756.13
2023-04-10T17:19:55.060Z,99755.03
2023-04-10T17:22:23.765Z,99776.91
2023-04-10T17:24:51.367Z,99767.44
2023-04-10T17:27:18.312Z,99768.84
2023-04-10T17:29:45.252Z,99776.75
2023-04-10T17:32:12.919Z,99773.91
2023-04-10T17:34:40.013Z,99766.38
2023-04-10T17:37:07.295Z,99780.78
2023-04-10T17:39:35.579Z,99796.66
2023-04-10T17:42:02.519Z,99789.50
2023-04-10T17:44:33.030Z,99790.03
2023-04-10T17:47:01.973Z,99785.28
2023-04-10T17:49:28.965Z,99799.38
2023-04-10T17:51:56.124Z,99791.94
2023-04-10T17:54:23.221Z,99787.03
2023-04-10T17:56:52.865Z,99805.50
2023-04-10T17:59:19.790Z,99796.38
2023-04-10T18:01:46.872Z,99814.69
2023-04-10T18:04:14.920Z,99786.59
2023-04-10T18:06:41.780Z,99796.34
2023-04-10T18:09:08.800Z,99803.47
2023-04-10T18:11:35.800Z,99799.94
2023-04-10T18:14:02.939Z,99806.13
2023-04-10T18:16:32.179Z,99818.59
2023-04-10T18:18:59.051Z,99830.28
2023-04-10T18:21:27.404Z,99830.44
2023-04-10T18:23:55.779Z,99825.63
2023-04-10T18:26:22.858Z,99823.69
2023-04-10T18:28:50.450Z,99818.69
2023-04-10T18:31:19.215Z,99821.00
2023-04-10T18:33:56.224Z,99825.63
2023-04-10T18:36:31.703Z,99820.13
2023-04-10T18:38:58.563Z,99827.94
2023-04-10T18:41:25.539Z,99831.41
2023-04-10T18:44:01.789Z,99824.28
2023-04-10T18:46:32.837Z,99837.47
2023-04-10T18:49:01.972Z,99851.06
2023-04-10T18:51:29.017Z,99862.72
2023-04-10T18:53:56.257Z,99868.94
2023-04-10T18:56:23.363Z,99863.88
2023-04-10T18:58:51.946Z,99876.16
2023-04-10T19:01:19.266Z,99863.44
2023-04-10T19:03:49.144Z,99864.94
2023-04-10T19:06:23.924Z,99870.03
2023-04-10T19:08:51.298Z,99875.06
2023-04-10T19:11:19.042Z,99877.19
2023-04-10T19:13:46.546Z,99875.03
2023-04-10T19:16:14.761Z,99893.66
2023-04-10T19:18:42.884Z,99901.69
2023-04-10T19:21:09.806Z,99908.88
2023-04-10T19:23:37.881Z,99901.63
2023-04-10T19:26:04.956Z,99903.84
2023-04-10T19:28:33.410Z,99901.44
2023-04-10T19:31:02.213Z,99908.81
2023-04-10T19:33:30.566Z,99906.38
2023-04-10T19:36:02.440Z,99911.78
2023-04-10T19:38:29.796Z,99918.00
2023-04-10T19:40:57.105Z,99917.53
2023-04-10T19:43:27.095Z,99927.41
2023-04-10T19:45:54.857Z,99923.72
2023-04-10T19:48:24.797Z,99923.72
2023-04-10T19:50:51.664Z,99939.44
2023-04-10T19:53:18.639Z,99925.56
2023-04-10T19:55:45.630Z,99939.56
2023-04-10T19:58:30.031Z,99932.47
2023-04-10T20:01:05.026Z,99939.34
2023-04-10T20:03:34.452Z,99942.00
2023-04-10T20:06:04.755Z,99949.81
2023-04-10T20:08:32.652Z,99954.50
2023-04-10T20:11:00.010Z,99958.75
2023-04-10T20:13:26.897Z,99961.75
2023-04-10T20:15:53.922Z,99954.97
2023-04-10T20:18:23.598Z,99964.28
2023-04-10T20:20:50.675Z,99966.44
2023-04-10T20:23:18.670Z,99968.28
2023-04-10T20:25:45.878Z,99974.00
2023-04-10T20:28:12.723Z,99974.22
2023-04-10T20:30:39.663Z,99980.78
2023-04-10T20:33:07.159Z,99980.53
2023-04-10T20:35:34.141Z,99992.09
2023-04-10T20:38:01.305Z,99987.72
2023-04-10T20:40:30.570Z,99982.94
2023-04-10T20:42:57.690Z,99990.91
2023-04-10T20:45:24.641Z,99997.09
2023-04-10T20:47:51.510Z,100004.09
2023-04-10T20:50:19.436Z,100010.28
2023-04-10T20:52:46.322Z,100030.69
2023-04-10T20:55:13.507Z,100040.88
2023-04-10T20:57:41.925Z,100029.19
2023-04-10T21:00:09.944Z,100037.81
2023-04-10T21:02:37.011Z,100039.16
2023-04-10T21:05:04.318Z,100041.31
2023-04-10T21:07:32.756Z,100041.44
2023-04-10T21:09:59.849Z,100046.34
2023-04-10T21:12:28.108Z,100049.78
2023-04-10T21:14:54.961Z,100054.88
2023-04-10T21:17:22.995Z,100042.47
2023-04-10T21:19:51.960Z,100052.84
2023-04-10T21:22:19.741Z,100057.44
2023-04-10T21:24:48.272Z,100055.81
2023-04-10T21:27:15.093Z,100059.22
2023-04-10T21:29:42.629Z,100061.03
2023-04-10T21:32:09.654Z,100067.53
2023-04-10T21:34:36.836Z,100060.75
2023-04-10T21:37:04.945Z,100070.47
2023-04-10T21:39:32.874Z,100054.31
2023-04-10T21:41:59.706Z,100057.53
2023-04-10T21:44:27.034Z,100048.34
2023-04-10T21:46:54.012Z,100064.34
2023-04-10T21:49:21.392Z,100080.38
2023-04-10T21:51:48.359Z,100065.72
2023-04-10T21:54:15.917Z,100065.25
2023-04-10T21:56:43.435Z,100058.13
2023-04-10T21:59:11.099Z,100069.13
2023-04-10T22:01:38.178Z,100062.66
2023-04-10T22:04:05.311Z,100066.09
2023-04-10T22:06:32.322Z,100071.09
2023-04-10T22:09:00.743Z,100061.94
2023-04-10T22:11:28.741Z,100067.72
2023-04-10T22:13:56.394Z,100078.25
2023-04-10T22:16:25.761Z,100076.66
2023-04-10T22:18:54.732Z,100078.13
2023-04-10T22:21:23.060Z,100069.41
2023-04-10T22:23:49.992Z,100071.69
2023-04-10T22:26:16.955Z,100078.63
2023-04-10T22:28:44.004Z,100074.63
2023-04-10T22:31:18.656Z,100079.94
2023-04-10T22:33:46.132Z,100074.44
2023-04-10T22:36:13.261Z,100071.41
2023-04-10T22:38:40.142Z,100066.56
2023-04-10T22:41:08.212Z,100066.09
2023-04-10T22:43:35.473Z,100067.84
2023-04-10T22:46:02.423Z,100076.41
2023-04-10T22:48:29.333Z,100069.31
2023-04-10T22:50:56.253Z,100068.84
2023-04-10T22:53:23.357Z,100067.38
2023-04-10T22:55:50.471Z,100070.78
2023-04-10T22:58:18.170Z,100064.16
2023-04-10T23:00:45.234Z,100071.25
2023-04-10T23:03:15.207Z,100078.66
2023-04-10T23:05:42.407Z,100087.25
2023-04-10T23:08:11.433Z,100087.25
2023-04-10T23:10:39.679Z,100080.13
2023-04-10T23:13:06.598Z,100083.56
2023-04-10T23:15:33.677Z,100089.06
2023-04-10T23:18:00.661Z,100083.06
2023-04-10T23:20:27.702Z,100086.97
2023-04-10T23:22:58.752Z,100087.63
2023-04-10T23:25:28.611Z,100093.09
2023-04-10T23:27:55.666Z,100096.31
2023-04-10T23:30:23.636Z,100101.00
2023-04-10T23:32:50.602Z,100093.56
2023-04-10T23:35:17.850Z,100092.47
2023-04-10T23:37:44.896Z,100100.69
2023-04-10T23:40:12.299Z,100089.72
2023-04-10T23:42:39.307Z,100096.31
2023-04-10T23:45:07.159Z,100107.31
2023-04-10T23:47:34.133Z,100100.19
2023-04-10T23:50:01.660Z,100089.22
2023-04-10T23:52:28.993Z,100098.59
2023-04-10T23:54:56.462Z,100098.59
2023-04-10T23:57:26.882Z,100095.84
2023-04-10T23:59:53.800Z,100117.00
